Time;durP1;ratioP1;P1;durP2;ratioP2;P2;SDS_P1;SDS_P2;PMS_P1;PMS_P2;Temp;Humidity;BMP_temperature;BMP_pressure;BME280_temperature;BME280_humidity;BME280_pressure;Samples;Min_cycle;Max_cycle;Signal;HPM_P1;HPM_P2
2021/03/13 00:01:05;;;;;;;;;;;8.90;97.70;;;;;;5099974;28;19924;-68
2021/03/13 00:03:31;;;;;;;;;;;8.90;97.80;;;;;;5069761;28;19931;-67
2021/03/13 00:05:58;;;;;;;;;;;8.90;97.90;;;;;;5070844;28;19985;-67
2021/03/13 00:08:24;;;;;;;;;;;9.00;98.10;;;;;;5074784;28;19925;-68
2021/03/13 00:10:50;;;;;;;;;;;8.90;98.10;;;;;;5073450;28;19935;-68
2021/03/13 00:13:16;;;;;;;;;;;8.90;98.50;;;;;;5060517;28;19938;-68
2021/03/13 00:15:44;;;;;;;;;;;8.90;98.00;;;;;;5076877;28;19932;-67
2021/03/13 00:18:11;;;;;;;;;;;8.90;98.20;;;;;;5081685;28;19928;-67
2021/03/13 00:20:38;;;;;;;;;;;8.90;98.30;;;;;;5075856;28;19942;-67
2021/03/13 00:23:05;;;;;;;;;;;8.90;98.50;;;;;;5073127;28;19949;-67
2021/03/13 00:25:32;;;;;;;;;;;8.90;98.50;;;;;;5074407;28;19939;-68
2021/03/13 00:27:58;;;;;;;;;;;8.90;98.60;;;;;;5077623;28;19940;-67
2021/03/13 00:30:25;;;;;;;;;;;8.80;98.60;;;;;;5070741;28;19933;-67
2021/03/13 00:32:53;;;;;;;;;;;8.80;98.80;;;;;;5068893;28;19947;-68
2021/03/13 00:35:20;;;;;;;;;;;8.80;98.80;;;;;;5073236;28;19939;-68
2021/03/13 00:37:47;;;;;;;;;;;8.80;99.00;;;;;;5067488;28;20023;-67
2021/03/13 00:40:14;;;;;;;;;;;8.80;99.00;;;;;;5067295;28;20413;-68
2021/03/13 00:42:41;;;;;;;;;;;8.80;99.00;;;;;;5073514;28;19924;-68
2021/03/13 00:45:09;;;;;;;;;;;8.80;98.90;;;;;;5068883;28;19925;-68
2021/03/13 00:47:36;;;;;;;;;;;8.90;98.90;;;;;;5072953;28;19925;-66
2021/03/13 00:50:03;;;;;;;;;;;8.90;98.90;;;;;;5067290;28;19924;-67
2021/03/13 00:52:30;;;;;;;;;;;8.90;98.90;;;;;;5076152;28;19924;-67
2021/03/13 00:54:56;;;;;;;;;;;8.90;98.80;;;;;;5075506;28;19990;-67
2021/03/13 00:57:22;;;;;;;;;;;8.90;98.90;;;;;;5071800;28;19924;-68
2021/03/13 00:59:48;;;;;;;;;;;8.90;98.80;;;;;;5071839;28;19935;-67
2021/03/13 01:02:14;;;;;;;;;;;9.00;98.80;;;;;;5068207;28;20267;-68
2021/03/13 01:04:41;;;;;;;;;;;9.00;98.80;;;;;;5068561;28;20262;-68
2021/03/13 01:07:08;;;;;;;;;;;9.00;98.70;;;;;;5078317;28;19935;-68
2021/03/13 01:09:34;;;;;;;;;;;9.00;98.70;;;;;;5076058;28;20342;-67
2021/03/13 01:12:00;;;;;;;;;;;9.00;98.80;;;;;;5078753;28;19924;-68
2021/03/13 01:14:27;;;;;;;;;;;9.10;98.80;;;;;;5085938;28;19940;-67
2021/03/13 01:16:53;;;;;;;;;;;9.20;98.70;;;;;;5072516;28;20369;-68
2021/03/13 01:19:19;;;;;;;;;;;9.20;98.60;;;;;;5072270;28;19932;-67
2021/03/13 01:21:45;;;;;;;;;;;9.30;98.60;;;;;;5076678;28;19924;-66
2021/03/13 01:24:13;;;;;;;;;;;9.30;98.50;;;;;;5075503;28;19977;-67
2021/03/13 01:26:39;;;;;;;;;;;9.30;98.40;;;;;;5074993;28;19924;-69
2021/03/13 01:29:06;;;;;;;;;;;9.30;98.40;;;;;;5072680;28;20057;-67
2021/03/13 01:31:32;;;;;;;;;;;9.40;98.40;;;;;;5072475;28;19931;-67
2021/03/13 01:33:58;;;;;;;;;;;9.40;98.40;;;;;;5079586;28;19924;-68
2021/03/13 01:36:25;;;;;;;;;;;9.50;98.20;;;;;;5070654;28;19924;-68
2021/03/13 01:38:51;;;;;;;;;;;9.50;98.20;;;;;;5071194;28;19942;-67
2021/03/13 01:41:18;;;;;;;;;;;9.50;98.10;;;;;;5078229;28;19928;-67
2021/03/13 01:43:44;;;;;;;;;;;9.50;97.80;;;;;;5081547;28;19925;-67
2021/03/13 01:46:11;;;;;;;;;;;9.50;97.70;;;;;;5064999;28;19925;-68
2021/03/13 01:48:38;;;;;;;;;;;9.60;97.70;;;;;;5071499;28;19931;-73
2021/03/13 01:51:05;;;;;;;;;;;9.60;97.70;;;;;;5076069;28;20003;-72
2021/03/13 01:53:31;;;;;;;;;;;9.60;97.60;;;;;;5072522;28;20298;-67
2021/03/13 01:55:58;;;;;;;;;;;9.60;97.40;;;;;;5079534;28;20077;-68
2021/03/13 01:58:25;;;;;;;;;;;9.50;97.40;;;;;;5067832;28;19950;-68
2021/03/13 02:00:51;;;;;;;;;;;9.50;97.40;;;;;;5071782;28;20124;-69
2021/03/13 02:03:18;;;;;;;;;;;9.50;97.50;;;;;;5068505;28;19935;-72
2021/03/13 02:05:45;;;;;;;;;;;9.50;97.50;;;;;;5076421;28;20266;-71
2021/03/13 02:08:15;;;;;;;;;;;9.50;97.40;;;;;;5069674;28;19928;-71
2021/03/13 02:10:44;;;;;;;;;;;9.60;97.40;;;;;;5087558;28;19924;-71
2021/03/13 02:13:16;;;;;;;;;;;9.60;97.50;;;;;;5073494;28;20514;-72
2021/03/13 02:15:50;;;;;;;;;;;9.60;97.80;;;;;;5064728;28;20330;-72
2021/03/13 02:18:22;;;;;;;;;;;9.60;97.30;;;;;;5060152;28;19928;-72
2021/03/13 02:20:54;;;;;;;;;;;9.60;97.20;;;;;;5076270;28;19925;-69
2021/03/13 02:23:21;;;;;;;;;;;9.60;97.30;;;;;;5069844;28;20289;-65
2021/03/13 02:26:04;;;;;;;;;;;9.60;97.20;;;;;;5074705;28;19928;-67
2021/03/13 02:28:36;;;;;;;;;;;9.50;97.10;;;;;;5087019;28;19967;-66
2021/03/13 02:31:03;;;;;;;;;;;9.50;97.10;;;;;;5073326;28;19924;-69
2021/03/13 02:33:32;;;;;;;;;;;9.50;97.10;;;;;;5080411;28;19930;-67
2021/03/13 02:35:59;;;;;;;;;;;9.50;97.00;;;;;;5074018;28;19963;-68
2021/03/13 02:38:27;;;;;;;;;;;9.50;97.00;;;;;;5064222;28;19935;-68
2021/03/13 02:40:54;;;;;;;;;;;9.50;97.00;;;;;;5089674;28;20063;-68
2021/03/13 02:43:21;;;;;;;;;;;9.50;97.00;;;;;;5077776;28;20361;-68
2021/03/13 02:45:50;;;;;;;;;;;9.50;96.90;;;;;;5080274;28;19932;-67
2021/03/13 02:48:18;;;;;;;;;;;9.50;96.80;;;;;;5078099;28;19928;-67
2021/03/13 02:50:45;;;;;;;;;;;9.50;96.60;;;;;;5077555;28;19934;-67
2021/03/13 02:53:11;;;;;;;;;;;9.60;96.60;;;;;;5076941;28;19925;-68
2021/03/13 02:55:38;;;;;;;;;;;9.50;96.60;;;;;;5076228;28;19935;-68
2021/03/13 02:58:05;;;;;;;;;;;9.50;96.70;;;;;;5075924;28;19935;-67
2021/03/13 03:00:33;;;;;;;;;;;9.50;96.70;;;;;;5070122;28;19924;-67
2021/03/13 03:03:00;;;;;;;;;;;9.60;96.70;;;;;;5069160;28;19997;-68
2021/03/13 03:05:29;;;;;;;;;;;9.50;96.60;;;;;;5081677;28;19939;-67
2021/03/13 03:07:56;;;;;;;;;;;9.60;96.50;;;;;;5072659;28;19974;-67
2021/03/13 03:10:24;;;;;;;;;;;9.50;96.50;;;;;;5078031;28;20235;-68
2021/03/13 03:12:51;;;;;;;;;;;9.60;96.30;;;;;;5076868;28;20234;-68
2021/03/13 03:15:21;;;;;;;;;;;9.60;96.30;;;;;;5081649;28;19924;-68
2021/03/13 03:17:47;;;;;;;;;;;9.60;96.30;;;;;;5079892;28;19928;-68
2021/03/13 03:20:15;;;;;;;;;;;9.60;96.20;;;;;;5081269;28;19925;-69
2021/03/13 03:22:42;;;;;;;;;;;9.60;96.20;;;;;;5076996;28;19925;-69
2021/03/13 03:25:09;;;;;;;;;;;9.50;96.30;;;;;;5074588;28;19924;-69
2021/03/13 03:27:49;;;;;;;;;;;9.40;96.40;;;;;;5080771;28;19925;-68
2021/03/13 03:30:17;;;;;;;;;;;9.40;96.40;;;;;;5074886;28;19925;-68
2021/03/13 03:32:44;;;;;;;;;;;9.30;96.40;;;;;;5074231;28;19925;-68
2021/03/13 03:35:12;;;;;;;;;;;9.10;96.50;;;;;;5064373;28;19990;-68
2021/03/13 03:37:38;;;;;;;;;;;9.10;96.60;;;;;;5074472;28;22418;-68
2021/03/13 03:40:06;;;;;;;;;;;9.00;96.70;;;;;;5074755;28;19935;-68
2021/03/13 03:42:34;;;;;;;;;;;9.00;96.70;;;;;;5073950;28;19925;-68
2021/03/13 03:45:01;;;;;;;;;;;8.80;96.60;;;;;;5073556;28;20255;-68
2021/03/13 03:47:27;;;;;;;;;;;8.90;96.80;;;;;;5074364;28;19925;-68
2021/03/13 03:49:54;;;;;;;;;;;8.90;96.90;;;;;;5071641;28;19989;-68
2021/03/13 03:52:20;;;;;;;;;;;8.90;96.90;;;;;;5074239;28;20255;-68
2021/03/13 03:54:47;;;;;;;;;;;8.80;96.90;;;;;;5073666;28;19924;-68
2021/03/13 03:57:14;;;;;;;;;;;8.80;97.00;;;;;;5074419;28;19925;-68
2021/03/13 03:59:41;;;;;;;;;;;8.70;96.90;;;;;;5074037;28;19936;-68
2021/03/13 04:02:08;;;;;;;;;;;8.70;96.90;;;;;;5074047;28;19934;-68
2021/03/13 04:04:35;;;;;;;;;;;8.70;96.90;;;;;;5070925;28;19924;-68
2021/03/13 04:07:01;;;;;;;;;;;8.70;96.80;;;;;;5071640;28;20274;-68
2021/03/13 04:09:28;;;;;;;;;;;8.70;96.80;;;;;;5073458;28;19935;-68
2021/03/13 04:11:55;;;;;;;;;;;8.60;96.80;;;;;;5066916;28;20006;-68
2021/03/13 04:14:22;;;;;;;;;;;8.60;96.90;;;;;;5067590;28;19924;-69
2021/03/13 04:16:50;;;;;;;;;;;8.70;96.90;;;;;;5072548;28;20034;-68
2021/03/13 04:19:16;;;;;;;;;;;8.70;96.80;;;;;;5073744;28;20332;-68
2021/03/13 04:21:43;;;;;;;;;;;8.70;96.70;;;;;;5073797;28;20328;-68
2021/03/13 04:24:12;;;;;;;;;;;8.80;96.60;;;;;;5072403;28;19951;-68
2021/03/13 04:26:38;;;;;;;;;;;8.80;96.50;;;;;;5081279;28;20317;-67
2021/03/13 04:29:05;;;;;;;;;;;8.80;96.30;;;;;;5073720;28;20370;-68
2021/03/13 04:31:33;;;;;;;;;;;8.80;96.30;;;;;;5073428;28;19925;-68
2021/03/13 04:34:00;;;;;;;;;;;8.80;96.20;;;;;;5070445;28;19936;-68
2021/03/13 04:36:28;;;;;;;;;;;8.80;96.10;;;;;;5071541;28;19940;-68
2021/03/13 04:38:55;;;;;;;;;;;8.80;96.00;;;;;;5072892;28;20343;-68
2021/03/13 04:41:22;;;;;;;;;;;8.80;96.10;;;;;;5069490;28;20359;-68
2021/03/13 04:43:48;;;;;;;;;;;8.80;96.20;;;;;;5071932;28;19954;-68
2021/03/13 04:46:14;;;;;;;;;;;8.80;96.20;;;;;;5072731;28;19924;-69
2021/03/13 04:48:42;;;;;;;;;;;8.80;96.10;;;;;;5072715;28;19924;-68
2021/03/13 04:51:08;;;;;;;;;;;8.80;96.20;;;;;;5073161;28;19935;-69
2021/03/13 04:53:35;;;;;;;;;;;8.80;96.20;;;;;;5060469;28;20354;-69
2021/03/13 04:56:01;;;;;;;;;;;8.80;96.20;;;;;;5073403;28;19932;-68
2021/03/13 04:58:28;;;;;;;;;;;8.80;96.20;;;;;;5072510;28;19981;-68
2021/03/13 05:00:55;;;;;;;;;;;8.80;96.20;;;;;;5065565;28;19951;-68
2021/03/13 05:03:21;;;;;;;;;;;8.80;96.20;;;;;;5068474;28;19934;-69
2021/03/13 05:05:48;;;;;;;;;;;8.80;96.40;;;;;;5083377;28;20387;-69
2021/03/13 05:08:14;;;;;;;;;;;8.80;96.30;;;;;;5083551;28;19984;-69
2021/03/13 05:10:41;;;;;;;;;;;8.80;96.50;;;;;;5082121;28;20338;-68
2021/03/13 05:13:07;;;;;;;;;;;8.80;96.30;;;;;;5085025;28;19924;-68
2021/03/13 05:15:33;;;;;;;;;;;8.80;96.30;;;;;;5089381;28;19977;-68
2021/03/13 05:17:59;;;;;;;;;;;8.80;96.20;;;;;;5092978;28;19934;-68
2021/03/13 05:20:26;;;;;;;;;;;8.80;96.30;;;;;;5093075;28;20040;-68
2021/03/13 05:22:53;;;;;;;;;;;8.80;96.30;;;;;;5080811;28;20713;-68
2021/03/13 05:25:19;;;;;;;;;;;8.80;96.20;;;;;;5072662;28;19931;-68
2021/03/13 05:27:45;;;;;;;;;;;8.80;96.20;;;;;;5059276;28;19939;-68
2021/03/13 05:30:12;;;;;;;;;;;8.80;96.30;;;;;;5072766;28;19924;-68
2021/03/13 05:32:39;;;;;;;;;;;8.80;96.20;;;;;;5072271;28;19928;-68
2021/03/13 05:35:06;;;;;;;;;;;8.80;96.30;;;;;;5070720;28;19924;-68
2021/03/13 05:37:32;;;;;;;;;;;8.80;96.30;;;;;;5072366;28;19934;-68
2021/03/13 05:39:59;;;;;;;;;;;8.90;96.40;;;;;;5072448;28;19924;-67
2021/03/13 05:42:26;;;;;;;;;;;8.90;96.30;;;;;;5072638;28;19933;-68
2021/03/13 05:44:54;;;;;;;;;;;8.80;96.20;;;;;;5071844;28;20411;-68
2021/03/13 05:47:21;;;;;;;;;;;8.90;96.30;;;;;;5072653;28;19935;-68
2021/03/13 05:49:54;;;;;;;;;;;9.00;96.20;;;;;;5072123;28;19928;-68
2021/03/13 05:52:22;;;;;;;;;;;9.00;96.20;;;;;;5072741;28;19924;-68
2021/03/13 05:54:50;;;;;;;;;;;9.10;96.00;;;;;;5071649;28;20281;-68
2021/03/13 05:57:17;;;;;;;;;;;9.10;95.80;;;;;;5072503;28;19928;-68
2021/03/13 05:59:43;;;;;;;;;;;9.20;95.90;;;;;;5075848;28;19924;-68
2021/03/13 06:02:10;;;;;;;;;;;9.20;95.80;;;;;;5076615;28;19928;-68
2021/03/13 06:04:36;;;;;;;;;;;9.20;95.80;;;;;;5073183;28;19934;-68
2021/03/13 06:07:03;;;;;;;;;;;9.20;95.80;;;;;;5076369;28;19925;-69
2021/03/13 06:09:29;;;;;;;;;;;9.20;95.80;;;;;;5076200;28;20002;-69
2021/03/13 06:11:55;;;;;;;;;;;9.20;95.70;;;;;;5068906;28;19989;-69
2021/03/13 06:14:22;;;;;;;;;;;9.30;95.80;;;;;;5070953;28;19925;-69
2021/03/13 06:16:48;;;;;;;;;;;9.30;95.70;;;;;;5075826;28;20367;-69
2021/03/13 06:19:15;;;;;;;;;;;9.30;95.80;;;;;;5076281;28;20408;-69
2021/03/13 06:21:41;;;;;;;;;;;9.30;95.80;;;;;;5075835;28;19924;-69
2021/03/13 06:24:14;;;;;;;;;;;9.30;95.80;;;;;;5076065;28;19925;-69
2021/03/13 06:26:49;;;;;;;;;;;9.40;95.90;;;;;;5075514;28;19943;-68
2021/03/13 06:29:16;;;;;;;;;;;9.40;95.80;;;;;;5076004;28;19928;-68
2021/03/13 06:31:43;;;;;;;;;;;9.40;95.80;;;;;;5075410;28;19924;-68
2021/03/13 06:34:24;;;;;;;;;;;9.40;95.90;;;;;;5074121;28;19930;-68
2021/03/13 06:36:50;;;;;;;;;;;9.40;95.90;;;;;;5075345;28;19939;-69
2021/03/13 06:39:16;;;;;;;;;;;9.40;95.70;;;;;;5075985;28;20270;-68
2021/03/13 06:41:43;;;;;;;;;;;9.40;95.70;;;;;;5075252;28;19924;-68
2021/03/13 06:44:14;;;;;;;;;;;9.50;95.80;;;;;;5075810;28;19925;-68
2021/03/13 06:46:40;;;;;;;;;;;9.50;95.80;;;;;;5075015;28;19924;-69
2021/03/13 06:49:07;;;;;;;;;;;9.50;95.70;;;;;;5075890;28;19931;-69
2021/03/13 06:51:36;;;;;;;;;;;9.50;95.60;;;;;;5075057;28;19928;-69
2021/03/13 06:54:11;;;;;;;;;;;9.50;95.60;;;;;;5075667;28;19925;-68
2021/03/13 06:56:38;;;;;;;;;;;9.60;95.60;;;;;;5074961;28;19932;-68
2021/03/13 06:59:17;;;;;;;;;;;9.60;95.50;;;;;;5075752;28;19956;-68
2021/03/13 07:01:43;;;;;;;;;;;9.60;95.50;;;;;;5071826;28;20059;-69
2021/03/13 07:04:11;;;;;;;;;;;9.70;95.50;;;;;;5058987;28;19935;-68
2021/03/13 07:06:44;;;;;;;;;;;9.70;95.30;;;;;;5069945;28;19960;-69
2021/03/13 07:09:10;;;;;;;;;;;9.70;95.20;;;;;;5072909;28;19924;-68
2021/03/13 07:11:36;;;;;;;;;;;9.80;95.20;;;;;;5072631;28;19932;-68
2021/03/13 07:14:03;;;;;;;;;;;9.90;95.20;;;;;;5075445;28;20365;-68
2021/03/13 07:16:30;;;;;;;;;;;9.90;95.00;;;;;;5074881;28;19935;-69
2021/03/13 07:18:58;;;;;;;;;;;9.90;95.00;;;;;;5074606;28;20362;-69
2021/03/13 07:21:25;;;;;;;;;;;9.90;94.90;;;;;;5075287;28;19924;-68
2021/03/13 07:23:56;;;;;;;;;;;9.90;95.20;;;;;;5074530;28;19933;-69
2021/03/13 07:26:24;;;;;;;;;;;9.90;95.50;;;;;;5074877;28;20343;-69
2021/03/13 07:28:53;;;;;;;;;;;9.90;95.80;;;;;;5074393;28;19989;-68
2021/03/13 07:31:19;;;;;;;;;;;10.00;95.20;;;;;;5074829;28;20302;-69
2021/03/13 07:33:47;;;;;;;;;;;10.00;95.30;;;;;;5069588;28;19933;-68
2021/03/13 07:36:15;;;;;;;;;;;10.00;95.50;;;;;;5073836;28;19932;-69
2021/03/13 07:38:44;;;;;;;;;;;10.00;95.40;;;;;;5074225;28;19936;-69
2021/03/13 07:41:11;;;;;;;;;;;10.00;95.50;;;;;;5074313;28;19931;-69
2021/03/13 07:43:39;;;;;;;;;;;10.10;95.70;;;;;;5074372;28;19998;-69
2021/03/13 07:46:07;;;;;;;;;;;10.10;95.90;;;;;;5061459;28;20201;-69
2021/03/13 07:48:35;;;;;;;;;;;10.20;95.90;;;;;;5074216;28;19971;-69
2021/03/13 07:51:02;;;;;;;;;;;10.10;96.10;;;;;;5074234;28;19924;-69
2021/03/13 07:53:30;;;;;;;;;;;10.20;96.00;;;;;;5074447;28;19925;-69
2021/03/13 07:55:58;;;;;;;;;;;10.10;96.00;;;;;;5073773;28;20259;-69
2021/03/13 07:58:24;;;;;;;;;;;10.00;96.30;;;;;;5074335;28;19925;-69
2021/03/13 08:00:50;;;;;;;;;;;10.00;96.60;;;;;;5073691;28;20019;-69
2021/03/13 08:03:37;;;;;;;;;;;10.00;97.00;;;;;;5072838;28;19924;-69
2021/03/13 08:06:04;;;;;;;;;;;9.90;97.70;;;;;;5093942;28;19924;-68
2021/03/13 08:08:34;;;;;;;;;;;9.90;97.90;;;;;;5091812;28;19932;-69
2021/03/13 08:11:01;;;;;;;;;;;9.90;98.10;;;;;;5093926;28;19924;-69
2021/03/13 08:13:46;;;;;;;;;;;10.00;97.80;;;;;;5092509;28;19924;-68
2021/03/13 08:16:13;;;;;;;;;;;10.00;97.80;;;;;;5093733;28;19939;-69
2021/03/13 08:18:40;;;;;;;;;;;10.00;97.90;;;;;;5094256;28;19993;-69
2021/03/13 08:21:25;;;;;;;;;;;10.10;98.20;;;;;;5093015;28;19924;-70
2021/03/13 08:23:52;;;;;;;;;;;10.00;98.00;;;;;;5093594;28;19924;-69
2021/03/13 08:26:21;;;;;;;;;;;10.00;98.20;;;;;;5093876;28;19924;-69
2021/03/13 08:28:56;;;;;;;;;;;10.00;98.30;;;;;;5094034;28;19925;-69
2021/03/13 08:31:36;;;;;;;;;;;9.90;99.30;;;;;;5093668;28;19924;-68
2021/03/13 08:34:17;;;;;;;;;;;9.80;99.60;;;;;;5086529;28;19935;-69
2021/03/13 08:36:46;;;;;;;;;;;9.80;99.90;;;;;;5078081;28;20416;-69
2021/03/13 08:39:14;;;;;;;;;;;9.80;99.90;;;;;;5073165;28;19924;-68
2021/03/13 08:41:47;;;;;;;;;;;9.80;99.90;;;;;;5065029;28;19932;-68
2021/03/13 08:44:15;;;;;;;;;;;9.80;99.90;;;;;;5068943;28;19932;-68
2021/03/13 08:46:50;;;;;;;;;;;9.80;99.90;;;;;;5073559;28;19924;-67
2021/03/13 08:49:36;;;;;;;;;;;9.80;99.90;;;;;;5072822;28;20366;-68
2021/03/13 08:52:22;;;;;;;;;;;9.80;99.90;;;;;;5072923;28;19966;-67
2021/03/13 08:54:48;;;;;;;;;;;9.70;99.90;;;;;;5073532;28;19963;-67
2021/03/13 08:57:16;;;;;;;;;;;9.70;99.90;;;;;;5072419;28;19931;-67
2021/03/13 08:59:43;;;;;;;;;;;9.70;99.90;;;;;;5073215;28;19925;-67
2021/03/13 09:02:11;;;;;;;;;;;9.70;99.90;;;;;;5072651;28;19973;-67
2021/03/13 09:04:38;;;;;;;;;;;9.70;99.90;;;;;;5063445;28;19924;-68
2021/03/13 09:07:06;;;;;;;;;;;9.60;99.90;;;;;;5072653;28;19986;-68
2021/03/13 09:09:33;;;;;;;;;;;9.60;99.90;;;;;;5068989;28;19986;-68
2021/03/13 09:12:00;;;;;;;;;;;9.70;99.90;;;;;;5066705;28;19932;-69
2021/03/13 09:14:28;;;;;;;;;;;9.60;99.90;;;;;;5072633;28;19924;-68
2021/03/13 09:16:54;;;;;;;;;;;9.60;99.90;;;;;;5072801;28;20271;-68
2021/03/13 09:19:22;;;;;;;;;;;9.50;99.90;;;;;;5072413;28;19924;-68
2021/03/13 09:21:49;;;;;;;;;;;9.60;99.90;;;;;;5072856;28;19935;-68
2021/03/13 09:24:17;;;;;;;;;;;9.60;99.90;;;;;;5072235;28;19928;-68
2021/03/13 09:26:47;;;;;;;;;;;9.60;99.90;;;;;;5072540;28;19924;-69
2021/03/13 09:29:13;;;;;;;;;;;9.70;99.90;;;;;;5072468;28;20366;-68
2021/03/13 09:31:40;;;;;;;;;;;9.60;99.90;;;;;;5072723;28;19931;-68
2021/03/13 09:34:14;;;;;;;;;;;9.70;99.90;;;;;;5071906;28;19924;-68
2021/03/13 09:36:40;;;;;;;;;;;9.70;99.90;;;;;;5059460;28;19924;-68
2021/03/13 09:39:07;;;;;;;;;;;9.70;99.90;;;;;;5072217;28;19935;-68
2021/03/13 09:41:33;;;;;;;;;;;9.70;99.90;;;;;;5072455;28;19924;-68
2021/03/13 09:44:01;;;;;;;;;;;9.80;99.90;;;;;;5072006;28;20379;-68
2021/03/13 09:46:29;;;;;;;;;;;9.80;99.90;;;;;;5072061;28;19951;-68
2021/03/13 09:48:56;;;;;;;;;;;9.80;99.90;;;;;;5072508;28;19936;-69
2021/03/13 09:51:23;;;;;;;;;;;9.80;99.90;;;;;;5072183;28;19925;-68
2021/03/13 09:53:49;;;;;;;;;;;9.80;99.90;;;;;;5072381;28;19924;-69
2021/03/13 09:56:15;;;;;;;;;;;9.90;99.90;;;;;;5072157;28;20278;-68
2021/03/13 09:58:42;;;;;;;;;;;9.90;99.90;;;;;;5072328;28;19982;-68
2021/03/13 10:01:08;;;;;;;;;;;9.90;99.90;;;;;;5071959;28;19939;-68
2021/03/13 10:03:34;;;;;;;;;;;9.90;99.90;;;;;;5059925;28;19925;-68
2021/03/13 10:06:02;;;;;;;;;;;9.90;99.90;;;;;;5072357;28;19951;-69
2021/03/13 10:08:35;;;;;;;;;;;9.80;99.90;;;;;;5071774;28;19925;-70
2021/03/13 10:11:02;;;;;;;;;;;9.90;99.90;;;;;;5065570;28;19925;-69
2021/03/13 10:13:29;;;;;;;;;;;9.90;99.90;;;;;;5068902;28;19935;-68
2021/03/13 10:15:56;;;;;;;;;;;9.90;99.90;;;;;;5072318;28;19928;-69
2021/03/13 10:18:26;;;;;;;;;;;9.90;99.90;;;;;;5071723;28;19925;-69
2021/03/13 10:20:53;;;;;;;;;;;9.90;99.90;;;;;;5072280;28;19939;-69
2021/03/13 10:23:21;;;;;;;;;;;9.90;99.90;;;;;;5071570;28;19924;-69
2021/03/13 10:25:53;;;;;;;;;;;9.90;99.90;;;;;;5072114;28;20359;-68
2021/03/13 10:28:20;;;;;;;;;;;10.00;99.90;;;;;;5071798;28;19924;-68
2021/03/13 10:30:46;;;;;;;;;;;10.00;99.90;;;;;;5072190;28;20316;-69
2021/03/13 10:33:13;;;;;;;;;;;10.10;99.90;;;;;;5071325;28;19925;-68
2021/03/13 10:35:40;;;;;;;;;;;10.10;99.90;;;;;;5064209;28;19948;-68
2021/03/13 10:38:15;;;;;;;;;;;10.20;99.90;;;;;;5071834;28;19928;-69
2021/03/13 10:40:43;;;;;;;;;;;10.30;99.90;;;;;;5071692;28;20371;-68
2021/03/13 10:43:11;;;;;;;;;;;10.30;99.90;;;;;;5086009;28;19924;-68
2021/03/13 10:45:37;;;;;;;;;;;10.30;99.90;;;;;;5093603;28;20024;-68
2021/03/13 10:48:04;;;;;;;;;;;10.40;99.90;;;;;;5095837;28;20365;-69
2021/03/13 10:50:31;;;;;;;;;;;10.40;99.90;;;;;;5095463;28;20006;-69
2021/03/13 10:52:57;;;;;;;;;;;10.40;99.90;;;;;;5095798;28;19935;-70
2021/03/13 10:55:37;;;;;;;;;;;10.40;99.90;;;;;;5095360;28;19951;-68
2021/03/13 10:58:05;;;;;;;;;;;10.50;99.90;;;;;;5095758;28;19935;-68
2021/03/13 11:00:31;;;;;;;;;;;10.50;99.90;;;;;;5095466;28;20277;-70
2021/03/13 11:02:57;;;;;;;;;;;10.50;99.90;;;;;;5089917;28;19931;-69
2021/03/13 11:05:23;;;;;;;;;;;10.50;99.90;;;;;;5087745;28;19935;-69
2021/03/13 11:07:50;;;;;;;;;;;10.50;99.90;;;;;;5095581;28;19932;-69
2021/03/13 11:10:16;;;;;;;;;;;10.50;99.90;;;;;;5095584;28;19928;-69
2021/03/13 11:12:42;;;;;;;;;;;10.60;99.90;;;;;;5087207;28;19924;-68
2021/03/13 11:15:11;;;;;;;;;;;10.60;99.90;;;;;;5095345;28;19924;-69
2021/03/13 11:17:37;;;;;;;;;;;10.60;99.90;;;;;;5094999;28;19935;-69
2021/03/13 11:20:04;;;;;;;;;;;10.60;99.90;;;;;;5095399;28;20362;-68
2021/03/13 11:22:30;;;;;;;;;;;10.70;99.90;;;;;;5094800;28;19924;-69
2021/03/13 11:24:57;;;;;;;;;;;10.70;99.90;;;;;;5095232;28;19924;-68
2021/03/13 11:27:23;;;;;;;;;;;10.70;99.90;;;;;;5094667;28;19924;-69
2021/03/13 11:29:49;;;;;;;;;;;10.70;99.90;;;;;;5094971;28;19939;-71
2021/03/13 11:32:17;;;;;;;;;;;10.80;99.90;;;;;;5095290;28;19928;-69
2021/03/13 11:34:44;;;;;;;;;;;10.90;99.90;;;;;;5082332;28;20417;-68
2021/03/13 11:37:10;;;;;;;;;;;10.90;99.90;;;;;;5079698;28;20276;-69
2021/03/13 11:39:36;;;;;;;;;;;10.90;99.90;;;;;;5074391;28;19929;-69
2021/03/13 11:42:03;;;;;;;;;;;11.00;99.90;;;;;;5066266;28;20318;-68
2021/03/13 11:44:29;;;;;;;;;;;11.10;99.90;;;;;;5069109;28;20010;-69
2021/03/13 11:46:55;;;;;;;;;;;11.10;99.90;;;;;;5074801;28;19993;-69
2021/03/13 11:49:23;;;;;;;;;;;11.20;99.90;;;;;;5073755;28;19936;-69
2021/03/13 11:51:49;;;;;;;;;;;11.20;99.90;;;;;;5074658;28;19929;-69
2021/03/13 11:54:16;;;;;;;;;;;11.30;99.90;;;;;;5074230;28;19929;-69
2021/03/13 11:56:42;;;;;;;;;;;11.40;99.90;;;;;;5073659;28;19932;-69
2021/03/13 11:59:08;;;;;;;;;;;11.40;99.90;;;;;;5074339;28;19935;-68
2021/03/13 12:01:35;;;;;;;;;;;11.50;99.90;;;;;;5073829;28;19924;-68
2021/03/13 12:04:01;;;;;;;;;;;11.60;99.90;;;;;;5062448;28;19932;-68
2021/03/13 12:06:28;;;;;;;;;;;11.70;99.90;;;;;;5073797;28;19932;-69
2021/03/13 12:08:54;;;;;;;;;;;11.80;99.90;;;;;;5074102;28;19970;-69
2021/03/13 12:11:21;;;;;;;;;;;11.90;99.90;;;;;;5071627;28;19924;-70
2021/03/13 12:13:47;;;;;;;;;;;12.00;99.90;;;;;;5070249;28;19975;-68
2021/03/13 12:16:14;;;;;;;;;;;12.00;99.30;;;;;;5073746;28;19929;-69
2021/03/13 12:18:40;;;;;;;;;;;12.20;99.40;;;;;;5073479;28;19925;-69
2021/03/13 12:21:06;;;;;;;;;;;12.30;99.30;;;;;;5073992;28;19930;-69
2021/03/13 12:23:33;;;;;;;;;;;12.40;99.10;;;;;;5073116;28;19940;-68
2021/03/13 12:26:00;;;;;;;;;;;12.40;99.00;;;;;;5073984;28;19935;-69
2021/03/13 12:28:26;;;;;;;;;;;12.50;98.60;;;;;;5073030;28;19928;-69
2021/03/13 12:30:52;;;;;;;;;;;12.60;98.20;;;;;;5073742;28;19985;-69
2021/03/13 12:33:19;;;;;;;;;;;12.70;98.40;;;;;;5073479;28;19932;-69
2021/03/13 12:35:48;;;;;;;;;;;12.70;97.10;;;;;;5073253;28;19932;-68
2021/03/13 12:38:15;;;;;;;;;;;12.80;97.10;;;;;;5073471;28;19925;-68
2021/03/13 12:40:44;;;;;;;;;;;12.80;96.70;;;;;;5072959;28;19947;-68
2021/03/13 12:43:10;;;;;;;;;;;12.90;96.30;;;;;;5073347;28;20274;-68
2021/03/13 12:45:37;;;;;;;;;;;12.90;95.80;;;;;;5072864;28;19925;-69
2021/03/13 12:48:03;;;;;;;;;;;12.90;95.90;;;;;;5073201;28;19925;-69
2021/03/13 12:50:30;;;;;;;;;;;13.00;95.60;;;;;;5072928;28;19954;-68
2021/03/13 12:52:58;;;;;;;;;;;12.90;95.30;;;;;;5073312;28;19935;-68
2021/03/13 12:55:28;;;;;;;;;;;12.90;95.40;;;;;;5073130;28;20000;-69
2021/03/13 12:57:55;;;;;;;;;;;13.00;95.20;;;;;;5080901;28;19974;-68
2021/03/13 13:00:22;;;;;;;;;;;13.00;95.20;;;;;;5073267;28;20369;-68
2021/03/13 13:02:48;;;;;;;;;;;13.00;94.10;;;;;;5061767;28;19924;-69
2021/03/13 13:05:14;;;;;;;;;;;13.00;94.20;;;;;;5065431;28;19934;-68
2021/03/13 13:07:45;;;;;;;;;;;13.10;94.30;;;;;;5071988;28;19970;-68
2021/03/13 13:10:12;;;;;;;;;;;13.10;94.20;;;;;;5072876;28;19935;-68
2021/03/13 13:12:38;;;;;;;;;;;13.10;94.10;;;;;;5065769;28;19924;-68
2021/03/13 13:15:06;;;;;;;;;;;13.00;93.10;;;;;;5073191;28;19934;-68
2021/03/13 13:17:33;;;;;;;;;;;13.00;93.20;;;;;;5072503;28;19925;-68
2021/03/13 13:20:00;;;;;;;;;;;13.00;93.20;;;;;;5067817;28;19924;-68
2021/03/13 13:22:27;;;;;;;;;;;12.90;93.20;;;;;;5065020;28;19928;-69
2021/03/13 13:24:53;;;;;;;;;;;12.80;93.60;;;;;;5072169;28;19936;-68
2021/03/13 13:27:19;;;;;;;;;;;12.80;94.20;;;;;;5072277;28;19934;-68
2021/03/13 13:29:46;;;;;;;;;;;12.80;94.70;;;;;;5072460;28;19928;-69
2021/03/13 13:32:13;;;;;;;;;;;12.80;95.60;;;;;;5072942;28;19989;-67
2021/03/13 13:34:40;;;;;;;;;;;12.90;95.80;;;;;;5065040;28;19932;-68
2021/03/13 13:37:06;;;;;;;;;;;12.90;95.40;;;;;;5072943;28;19928;-68
2021/03/13 13:39:33;;;;;;;;;;;12.90;95.10;;;;;;5072053;28;19924;-68
2021/03/13 13:41:59;;;;;;;;;;;12.90;94.40;;;;;;5069471;28;20404;-69
2021/03/13 13:44:25;;;;;;;;;;;12.80;94.30;;;;;;5072329;28;20278;-69
2021/03/13 13:46:51;;;;;;;;;;;12.90;94.40;;;;;;5071142;28;19928;-68
2021/03/13 13:49:18;;;;;;;;;;;12.80;93.50;;;;;;5072429;28;19928;-68
2021/03/13 13:51:45;;;;;;;;;;;12.80;90.60;;;;;;5071987;28;19932;-68
2021/03/13 13:54:11;;;;;;;;;;;12.60;91.50;;;;;;5071974;28;19924;-68
2021/03/13 13:56:37;;;;;;;;;;;12.60;91.90;;;;;;5071671;28;19930;-68
2021/03/13 13:59:05;;;;;;;;;;;12.60;92.20;;;;;;5071888;28;19924;-68
2021/03/13 14:01:31;;;;;;;;;;;12.50;92.10;;;;;;5079280;28;19924;-68
2021/03/13 14:03:58;;;;;;;;;;;12.40;91.50;;;;;;5077743;28;19990;-68
2021/03/13 14:06:25;;;;;;;;;;;12.20;91.50;;;;;;5072128;28;20011;-67
2021/03/13 14:08:51;;;;;;;;;;;12.10;92.20;;;;;;5071527;28;19935;-67
2021/03/13 14:11:17;;;;;;;;;;;12.10;92.90;;;;;;5070264;28;19946;-68
2021/03/13 14:13:43;;;;;;;;;;;11.90;92.90;;;;;;5070195;28;19925;-68
2021/03/13 14:16:10;;;;;;;;;;;11.80;93.00;;;;;;5071799;28;19925;-68
2021/03/13 14:18:36;;;;;;;;;;;11.70;93.20;;;;;;5071632;28;19928;-68
2021/03/13 14:21:02;;;;;;;;;;;11.70;93.30;;;;;;5061361;28;19950;-67
2021/03/13 14:23:29;;;;;;;;;;;11.60;92.60;;;;;;5071016;28;19933;-67
2021/03/13 14:25:56;;;;;;;;;;;11.60;92.40;;;;;;5071664;28;19942;-68
2021/03/13 14:28:22;;;;;;;;;;;11.60;92.40;;;;;;5062850;28;19957;-68